Time;durP1;ratioP1;P1;durP2;ratioP2;P2;SDS_P1;SDS_P2;PMS_P1;PMS_P2;Temp;Humidity;BMP_temperature;BMP_pressure;BME280_temperature;BME280_humidity;BME280_pressure;Samples;Min_cycle;Max_cycle;Signal;HPM_P1;HPM_P2
2021/10/19 00:01:28;;;;;;;7.20;6.50;;;6.30;75.90;;;;;;5218612;28;20175;-67
2021/10/19 00:04:00;;;;;;;7.38;6.68;;;6.30;75.60;;;;;;5220463;28;20049;-67
2021/10/19 00:06:32;;;;;;;7.22;6.53;;;6.20;75.90;;;;;;5221469;28;20046;-67
2021/10/19 00:09:04;;;;;;;6.57;5.97;;;6.10;77.20;;;;;;5200678;28;20048;-69
2021/10/19 00:11:36;;;;;;;7.20;6.50;;;6.10;76.30;;;;;;5220792;28;20155;-68
2021/10/19 00:14:08;;;;;;;6.95;6.25;;;6.10;76.40;;;;;;5219275;28;20492;-67
2021/10/19 00:16:40;;;;;;;7.15;6.45;;;6.10;76.70;;;;;;5220058;28;20147;-68
2021/10/19 00:19:12;;;;;;;7.35;6.65;;;6.20;76.90;;;;;;5220076;28;20063;-67
2021/10/19 00:21:44;;;;;;;7.35;6.35;;;6.10;76.10;;;;;;5188319;28;20044;-67
2021/10/19 00:24:16;;;;;;;7.68;6.30;;;6.10;76.10;;;;;;5218758;28;20179;-68
2021/10/19 00:26:48;;;;;;;7.25;6.55;;;6.00;76.80;;;;;;5224843;28;20064;-67
2021/10/19 00:29:20;;;;;;;6.90;6.30;;;5.90;77.60;;;;;;5207176;28;20162;-67
2021/10/19 00:31:52;;;;;;;6.85;6.15;;;5.90;77.50;;;;;;5205512;28;20118;-67
2021/10/19 00:34:24;;;;;;;7.18;6.53;;;5.90;77.30;;;;;;5227002;28;20102;-67
2021/10/19 00:36:56;;;;;;;7.25;6.55;;;5.90;77.80;;;;;;5223132;28;20126;-66
2021/10/19 00:39:28;;;;;;;7.53;6.60;;;5.80;77.50;;;;;;5223549;28;20049;-66
2021/10/19 00:42:00;;;;;;;6.43;5.82;;;5.70;77.70;;;;;;5223124;28;20159;-67
2021/10/19 00:44:33;;;;;;;6.72;6.10;;;5.70;78.70;;;;;;5225519;28;20119;-67
2021/10/19 00:47:04;;;;;;;7.82;5.88;;;5.80;78.70;;;;;;5220224;28;20040;-67
2021/10/19 00:49:36;;;;;;;6.97;6.38;;;5.90;78.20;;;;;;5224223;28;20051;-68
2021/10/19 00:52:08;;;;;;;6.78;6.10;;;6.00;78.00;;;;;;5223652;28;20503;-67
2021/10/19 00:54:40;;;;;;;7.03;6.32;;;6.10;77.90;;;;;;5224525;28;20041;-68
2021/10/19 00:57:13;;;;;;;6.85;6.25;;;6.10;77.50;;;;;;5204314;28;20164;-69
2021/10/19 00:59:46;;;;;;;6.97;6.28;;;6.20;77.00;;;;;;5222663;28;20720;-68
2021/10/19 01:02:18;;;;;;;7.25;6.50;;;6.30;77.10;;;;;;5223813;28;20052;-68
2021/10/19 01:04:50;;;;;;;7.40;6.70;;;6.30;77.00;;;;;;5226577;28;20133;-69
2021/10/19 01:07:23;;;;;;;7.15;6.45;;;6.30;77.00;;;;;;5219907;28;20048;-68
2021/10/19 01:09:56;;;;;;;7.38;6.68;;;6.30;76.30;;;;;;5223118;28;20418;-69
2021/10/19 01:12:28;;;;;;;7.70;7.00;;;6.20;76.70;;;;;;5221188;28;20040;-68
2021/10/19 01:15:06;;;;;;;7.43;6.72;;;6.20;76.40;;;;;;5223326;28;20057;-68
2021/10/19 01:17:47;;;;;;;6.60;6.00;;;6.10;76.80;;;;;;5223222;28;20143;-68
2021/10/19 01:20:32;;;;;;;7.50;6.30;;;6.10;76.90;;;;;;5222637;28;20466;-70
2021/10/19 01:23:04;;;;;;;7.22;6.50;;;6.10;76.90;;;;;;5221248;28;20131;-68
2021/10/19 01:25:37;;;;;;;6.80;6.10;;;6.20;77.10;;;;;;5221120;28;20558;-68
2021/10/19 01:28:10;;;;;;;7.05;6.35;;;6.30;77.10;;;;;;5222841;28;20236;-67
2021/10/19 01:30:44;;;;;;;7.00;6.40;;;6.30;77.10;;;;;;5221323;28;20150;-68
2021/10/19 01:33:16;;;;;;;7.00;6.38;;;6.30;76.80;;;;;;5224658;28;20113;-68
2021/10/19 01:35:48;;;;;;;8.23;6.40;;;6.40;76.50;;;;;;5221843;28;20514;-69
2021/10/19 01:38:22;;;;;;;7.45;6.68;;;6.40;76.70;;;;;;5223148;28;20133;-68
2021/10/19 01:40:56;;;;;;;6.95;6.35;;;6.40;77.60;;;;;;5224961;28;20049;-68
2021/10/19 01:43:29;;;;;;;7.10;6.43;;;6.40;77.00;;;;;;5223856;28;20068;-68
2021/10/19 01:46:03;;;;;;;6.82;6.22;;;6.30;76.50;;;;;;5222953;28;20080;-68
2021/10/19 01:48:35;;;;;;;6.75;6.15;;;6.30;76.80;;;;;;5223877;28;20044;-69
2021/10/19 01:51:07;;;;;;;7.25;6.55;;;6.20;76.20;;;;;;5203869;28;20045;-69
2021/10/19 01:53:39;;;;;;;6.90;6.30;;;6.10;76.80;;;;;;5222024;28;20486;-69
2021/10/19 01:56:11;;;;;;;7.95;6.28;;;6.10;77.10;;;;;;5223309;28;20059;-68
2021/10/19 01:58:43;;;;;;;7.00;6.40;;;5.90;78.30;;;;;;5221327;28;20073;-68
2021/10/19 02:01:15;;;;;;;6.97;6.20;;;5.90;77.90;;;;;;5217374;28;20044;-67
2021/10/19 02:03:47;;;;;;;7.28;6.57;;;6.00;77.50;;;;;;5222511;28;20148;-67
2021/10/19 02:06:19;;;;;;;7.15;6.45;;;6.00;77.30;;;;;;5221852;28;20048;-68
2021/10/19 02:08:51;;;;;;;6.95;6.35;;;5.90;77.70;;;;;;5221124;28;20076;-67
2021/10/19 02:11:23;;;;;;;7.00;6.13;;;6.00;77.40;;;;;;5221358;28;20693;-68
2021/10/19 02:13:54;;;;;;;6.68;6.07;;;6.00;76.90;;;;;;5224962;28;20565;-68
2021/10/19 02:16:26;;;;;;;6.78;6.18;;;6.00;76.80;;;;;;5221330;28;20617;-67
2021/10/19 02:18:58;;;;;;;6.70;6.10;;;6.10;76.90;;;;;;5223344;28;20492;-67
2021/10/19 02:21:30;;;;;;;6.65;6.05;;;6.10;76.30;;;;;;5219841;28;20053;-67
2021/10/19 02:24:02;;;;;;;6.80;6.20;;;6.20;76.10;;;;;;5223956;28;20045;-68
2021/10/19 02:26:34;;;;;;;6.90;6.30;;;6.30;75.80;;;;;;5221485;28;20132;-68
2021/10/19 02:29:06;;;;;;;7.10;6.40;;;6.30;75.20;;;;;;5222017;28;20934;-67
2021/10/19 02:31:38;;;;;;;7.10;6.50;;;6.40;75.20;;;;;;5221100;28;20136;-68
2021/10/19 02:34:11;;;;;;;7.47;6.28;;;6.40;75.70;;;;;;5204035;28;20053;-68
2021/10/19 02:36:44;;;;;;;6.90;6.20;;;6.30;75.40;;;;;;5219543;28;20464;-68
2021/10/19 02:39:16;;;;;;;7.30;6.35;;;6.30;75.00;;;;;;5222919;28;20143;-68
2021/10/19 02:41:47;;;;;;;6.90;6.30;;;6.20;75.00;;;;;;5220654;28;20131;-68
2021/10/19 02:44:19;;;;;;;7.15;6.50;;;6.20;74.80;;;;;;5202221;28;20118;-68
2021/10/19 02:46:51;;;;;;;6.93;6.32;;;6.10;75.20;;;;;;5200752;28;20072;-68
2021/10/19 02:49:23;;;;;;;6.70;6.10;;;6.00;75.80;;;;;;5220503;28;20141;-68
2021/10/19 02:51:55;;;;;;;7.65;6.20;;;6.00;75.90;;;;;;5220656;28;20165;-67
2021/10/19 02:54:27;;;;;;;7.90;6.18;;;6.00;76.10;;;;;;5222646;28;20110;-67
2021/10/19 02:57:00;;;;;;;6.60;6.00;;;6.00;76.10;;;;;;5220346;28;20219;-67
2021/10/19 02:59:32;;;;;;;6.30;5.70;;;6.10;75.60;;;;;;5220811;28;20044;-68
2021/10/19 03:02:04;;;;;;;6.63;6.00;;;6.10;75.40;;;;;;5220293;28;20048;-69
2021/10/19 03:04:35;;;;;;;6.50;5.90;;;6.20;74.90;;;;;;5220807;28;20209;-67
2021/10/19 03:07:07;;;;;;;7.05;6.35;;;6.30;75.20;;;;;;5219812;28;20164;-67
2021/10/19 03:09:39;;;;;;;6.50;5.90;;;6.30;74.90;;;;;;5220969;28;20124;-67
2021/10/19 03:12:11;;;;;;;6.53;5.93;;;6.30;75.00;;;;;;5221231;28;20155;-68
2021/10/19 03:14:43;;;;;;;6.70;6.10;;;6.40;74.70;;;;;;5201516;28;20049;-67
2021/10/19 03:17:15;;;;;;;6.72;6.13;;;6.40;74.80;;;;;;5220077;28;20053;-69
2021/10/19 03:19:47;;;;;;;6.43;5.82;;;6.40;75.10;;;;;;5218878;28;20037;-67
2021/10/19 03:22:19;;;;;;;6.85;6.25;;;6.40;75.30;;;;;;5219172;28;20127;-68
2021/10/19 03:24:51;;;;;;;6.78;6.18;;;6.40;74.90;;;;;;5219251;28;20049;-68
2021/10/19 03:27:23;;;;;;;6.63;6.00;;;6.40;74.70;;;;;;5222112;28;20136;-68
2021/10/19 03:29:54;;;;;;;6.93;6.10;;;6.40;75.00;;;;;;5221170;28;20045;-68
2021/10/19 03:32:26;;;;;;;6.45;5.85;;;6.40;75.10;;;;;;5203728;28;20135;-69
2021/10/19 03:34:58;;;;;;;6.75;6.15;;;6.40;74.80;;;;;;5222463;28;20055;-68
2021/10/19 03:37:30;;;;;;;6.65;6.03;;;6.40;74.90;;;;;;5220246;28;20106;-67
2021/10/19 03:40:03;;;;;;;6.70;6.10;;;6.30;74.80;;;;;;5220180;28;20045;-69
2021/10/19 03:42:38;;;;;;;8.30;6.35;;;6.30;75.40;;;;;;5219314;28;20127;-69
2021/10/19 03:45:11;;;;;;;6.63;6.03;;;6.30;75.40;;;;;;5218994;28;20144;-67
2021/10/19 03:47:44;;;;;;;7.00;6.30;;;6.20;75.00;;;;;;5221858;28;20115;-68
2021/10/19 03:50:16;;;;;;;7.13;6.43;;;6.20;74.90;;;;;;5218278;28;20056;-67
2021/10/19 03:52:48;;;;;;;6.82;5.82;;;6.10;74.90;;;;;;5221253;28;20123;-67
2021/10/19 03:55:20;;;;;;;6.32;5.72;;;6.10;75.20;;;;;;5217275;28;20572;-67
2021/10/19 03:57:52;;;;;;;6.57;5.97;;;6.00;75.20;;;;;;5218864;28;20044;-68
2021/10/19 04:00:24;;;;;;;6.50;5.90;;;6.10;75.30;;;;;;5218574;28;20047;-68
2021/10/19 04:02:56;;;;;;;6.68;5.97;;;6.10;76.00;;;;;;5219666;28;20152;-69
2021/10/19 04:05:28;;;;;;;6.20;5.60;;;6.10;76.80;;;;;;5220099;28;20569;-68
2021/10/19 04:08:00;;;;;;;5.97;5.40;;;6.10;77.40;;;;;;5220856;28;20048;-67
2021/10/19 04:10:32;;;;;;;6.00;5.40;;;6.10;77.20;;;;;;5220365;28;20048;-67
2021/10/19 04:13:04;;;;;;;5.82;5.22;;;6.20;76.40;;;;;;5221418;28;20067;-68
2021/10/19 04:15:36;;;;;;;6.10;5.50;;;6.20;76.50;;;;;;5219378;28;20072;-67
2021/10/19 04:18:08;;;;;;;6.00;5.40;;;6.30;77.60;;;;;;5219102;28;20698;-67
2021/10/19 04:20:40;;;;;;;6.30;5.68;;;6.30;77.80;;;;;;5222326;28;20139;-67
2021/10/19 04:23:12;;;;;;;6.07;5.47;;;6.30;79.50;;;;;;5220041;28;20163;-67
2021/10/19 04:25:44;;;;;;;6.13;5.53;;;6.30;78.40;;;;;;5218719;28;20045;-67
2021/10/19 04:28:16;;;;;;;6.75;5.55;;;6.30;78.00;;;;;;5219920;28;20128;-66
2021/10/19 04:30:50;;;;;;;6.35;5.50;;;6.20;78.00;;;;;;5221758;28;20044;-67
2021/10/19 04:33:22;;;;;;;6.15;5.35;;;6.20;77.70;;;;;;5199732;28;20937;-67
2021/10/19 04:35:54;;;;;;;5.70;5.10;;;6.20;77.70;;;;;;5220107;28;20049;-67
2021/10/19 04:38:26;;;;;;;6.38;5.35;;;6.20;78.20;;;;;;5218097;28;20171;-68
2021/10/19 04:41:02;;;;;;;5.82;5.22;;;6.20;77.90;;;;;;5222371;28;20098;-66
2021/10/19 04:43:34;;;;;;;6.07;5.30;;;6.20;79.00;;;;;;5219509;28;20048;-66
2021/10/19 04:46:05;;;;;;;7.57;5.40;;;6.20;79.10;;;;;;5215677;28;20053;-68
2021/10/19 04:48:37;;;;;;;10.25;6.25;;;6.20;79.10;;;;;;5219801;28;20124;-67
2021/10/19 04:51:10;;;;;;;6.60;5.85;;;6.20;78.80;;;;;;5217399;28;20090;-67
2021/10/19 04:53:42;;;;;;;7.10;6.13;;;6.20;78.20;;;;;;5220073;28;20367;-67
2021/10/19 04:56:14;;;;;;;6.97;5.88;;;6.20;78.50;;;;;;5220207;28;20049;-67
2021/10/19 04:58:46;;;;;;;6.90;6.20;;;6.20;78.30;;;;;;5221483;28;20049;-68
2021/10/19 05:01:18;;;;;;;7.30;5.88;;;6.10;79.30;;;;;;5219529;28;20589;-67
2021/10/19 05:03:51;;;;;;;7.75;6.72;;;6.10;79.10;;;;;;5220900;28;20056;-67
2021/10/19 05:06:24;;;;;;;8.05;6.30;;;6.00;80.40;;;;;;5217617;28;20167;-67
2021/10/19 05:08:56;;;;;;;7.18;6.20;;;6.00;80.70;;;;;;5218123;28;20156;-67
2021/10/19 05:11:28;;;;;;;7.65;5.78;;;6.00;80.20;;;;;;5219760;28;20044;-67
2021/10/19 05:14:00;;;;;;;7.28;6.20;;;6.00;80.60;;;;;;5222378;28;20095;-67
2021/10/19 05:16:32;;;;;;;7.85;6.10;;;6.00;81.40;;;;;;5222172;28;20152;-67
2021/10/19 05:19:04;;;;;;;8.52;5.93;;;6.10;81.10;;;;;;5223184;28;20086;-67
2021/10/19 05:21:36;;;;;;;6.88;6.10;;;6.10;81.20;;;;;;5221618;28;20126;-66
2021/10/19 05:24:08;;;;;;;6.50;5.70;;;6.20;80.20;;;;;;5223043;28;20135;-67
2021/10/19 05:26:40;;;;;;;6.78;5.88;;;6.20;81.00;;;;;;5219607;28;20049;-67
2021/10/19 05:29:13;;;;;;;7.22;5.90;;;6.20;80.40;;;;;;5222916;28;20103;-67
2021/10/19 05:31:45;;;;;;;6.40;5.53;;;6.20;81.60;;;;;;5222392;28;20040;-67
2021/10/19 05:34:17;;;;;;;6.40;5.70;;;6.10;81.20;;;;;;5221770;28;20788;-67
2021/10/19 05:36:49;;;;;;;6.90;6.18;;;6.00;81.10;;;;;;5219515;28;20518;-68
2021/10/19 05:39:21;;;;;;;6.38;5.40;;;6.10;81.10;;;;;;5223561;28;20049;-68
2021/10/19 05:41:53;;;;;;;6.28;5.55;;;6.10;81.10;;;;;;5222320;28;20136;-67
2021/10/19 05:44:26;;;;;;;6.68;5.25;;;6.10;82.60;;;;;;5221395;28;20043;-67
2021/10/19 05:46:58;;;;;;;7.40;5.28;;;6.20;83.00;;;;;;5220160;28;20057;-67
2021/10/19 05:49:29;;;;;;;7.10;6.10;;;6.20;81.90;;;;;;5223310;28;20040;-66
2021/10/19 05:52:02;;;;;;;10.68;8.18;;;6.20;82.10;;;;;;5216866;28;20041;-66
2021/10/19 05:54:34;;;;;;;9.05;7.07;;;6.20;81.80;;;;;;5219212;28;20494;-67
2021/10/19 05:57:06;;;;;;;9.07;6.40;;;6.20;82.00;;;;;;5220446;28;20948;-66
2021/10/19 05:59:37;;;;;;;14.73;11.23;;;6.20;82.00;;;;;;5221331;28;20161;-68
2021/10/19 06:02:09;;;;;;;16.92;10.90;;;6.20;82.70;;;;;;5219317;28;20048;-67
2021/10/19 06:04:41;;;;;;;11.65;8.48;;;6.20;83.50;;;;;;5221306;28;20967;-67
2021/10/19 06:07:13;;;;;;;10.32;7.63;;;6.10;83.00;;;;;;5205417;28;20040;-67
2021/10/19 06:09:45;;;;;;;8.05;6.82;;;6.30;82.20;;;;;;5219022;28;20041;-67
2021/10/19 06:12:17;;;;;;;8.00;6.20;;;6.30;81.80;;;;;;5217894;28;20086;-67
2021/10/19 06:14:49;;;;;;;6.60;5.85;;;6.40;81.30;;;;;;5223653;28;20045;-68
2021/10/19 06:17:21;;;;;;;6.63;5.78;;;6.50;83.50;;;;;;5220677;28;20049;-68
2021/10/19 06:19:53;;;;;;;7.20;6.32;;;6.50;83.10;;;;;;5220340;28;20049;-67
2021/10/19 06:22:25;;;;;;;6.57;5.75;;;6.50;83.30;;;;;;5220947;28;20152;-68
2021/10/19 06:24:57;;;;;;;6.47;5.85;;;6.60;83.20;;;;;;5221931;28;20044;-69
2021/10/19 06:27:28;;;;;;;6.28;5.38;;;6.60;84.10;;;;;;5221811;28;20138;-68
2021/10/19 06:30:03;;;;;;;6.40;5.70;;;6.60;83.50;;;;;;5219518;28;20048;-67
2021/10/19 06:32:35;;;;;;;6.47;5.68;;;6.70;83.40;;;;;;5222466;28;20162;-68
2021/10/19 06:35:09;;;;;;;6.47;5.72;;;6.80;83.50;;;;;;5221874;28;20096;-69
2021/10/19 06:37:41;;;;;;;8.48;6.63;;;6.80;83.00;;;;;;5202965;28;20067;-68
2021/10/19 06:40:13;;;;;;;7.43;6.18;;;6.80;84.00;;;;;;5219136;28;21031;-67
2021/10/19 06:42:45;;;;;;;7.90;5.78;;;6.70;84.40;;;;;;5219832;28;20043;-69
2021/10/19 06:45:17;;;;;;;7.78;6.10;;;6.70;85.80;;;;;;5222579;28;20126;-68
2021/10/19 06:47:48;;;;;;;8.20;6.20;;;6.80;85.90;;;;;;5220541;28;20143;-68
2021/10/19 06:50:20;;;;;;;6.63;5.65;;;6.90;85.30;;;;;;5221762;28;20596;-68
2021/10/19 06:52:52;;;;;;;6.70;5.78;;;6.90;85.00;;;;;;5221604;28;20128;-67
2021/10/19 06:55:24;;;;;;;7.18;5.75;;;7.10;84.90;;;;;;5223141;28;20416;-68
2021/10/19 06:57:57;;;;;;;7.45;6.35;;;7.20;84.80;;;;;;5221052;28;20126;-68
2021/10/19 07:00:29;;;;;;;7.63;6.57;;;7.30;84.60;;;;;;5217437;28;20760;-68
2021/10/19 07:03:02;;;;;;;9.10;7.20;;;7.30;86.10;;;;;;5218100;28;20438;-67
2021/10/19 07:05:34;;;;;;;7.93;6.85;;;7.40;85.80;;;;;;5220587;28;20179;-67
2021/10/19 07:08:07;;;;;;;8.52;6.55;;;7.50;84.80;;;;;;5202466;28;20096;-67
2021/10/19 07:10:41;;;;;;;7.28;6.57;;;7.60;85.20;;;;;;5219375;28;20552;-69
2021/10/19 07:13:20;;;;;;;7.13;6.40;;;7.60;84.70;;;;;;5220472;28;20029;-68
2021/10/19 07:15:54;;;;;;;7.30;6.60;;;7.70;84.50;;;;;;5220194;28;20867;-69
2021/10/19 07:18:26;;;;;;;7.82;6.70;;;7.70;85.40;;;;;;5219468;28;20045;-68
2021/10/19 07:20:58;;;;;;;8.77;6.55;;;7.70;84.60;;;;;;5220789;28;20049;-68
2021/10/19 07:23:30;;;;;;;8.05;7.25;;;7.80;84.80;;;;;;5220859;28;20928;-68
2021/10/19 07:26:03;;;;;;;6.80;6.10;;;7.80;85.00;;;;;;5220958;28;20063;-68
2021/10/19 07:28:34;;;;;;;8.48;6.32;;;7.90;85.40;;;;;;5217516;28;20899;-70
2021/10/19 07:31:06;;;;;;;8.07;7.28;;;8.00;85.70;;;;;;5220215;28;20171;-67
2021/10/19 07:33:38;;;;;;;8.68;7.65;;;8.10;86.20;;;;;;5216133;28;20438;-69
2021/10/19 07:36:16;;;;;;;8.02;7.07;;;8.20;85.90;;;;;;5218827;28;20415;-69
2021/10/19 07:38:49;;;;;;;7.97;7.18;;;8.20;86.90;;;;;;5220740;28;20609;-70
2021/10/19 07:41:21;;;;;;;8.40;7.55;;;8.30;86.60;;;;;;5218910;28;20039;-69
2021/10/19 07:43:53;;;;;;;7.90;7.10;;;8.30;86.80;;;;;;5218708;28;20126;-69
2021/10/19 07:46:25;;;;;;;9.88;7.72;;;8.40;87.00;;;;;;5218749;28;20135;-69
2021/10/19 07:48:57;;;;;;;8.65;7.03;;;8.40;86.60;;;;;;5219537;28;20586;-69
2021/10/19 07:51:29;;;;;;;7.88;7.07;;;8.50;86.70;;;;;;5219583;28;20182;-68
2021/10/19 07:54:01;;;;;;;9.15;7.78;;;8.50;85.70;;;;;;5218298;28;20124;-68
2021/10/19 07:56:33;;;;;;;8.48;7.68;;;8.60;86.00;;;;;;5218803;28;20636;-67
2021/10/19 07:59:06;;;;;;;8.35;7.55;;;8.70;85.30;;;;;;5186164;28;20048;-68
2021/10/19 08:01:38;;;;;;;9.63;7.80;;;8.70;85.70;;;;;;5200640;28;20037;-68
2021/10/19 08:04:10;;;;;;;8.55;7.65;;;8.80;85.40;;;;;;5220095;28;20041;-70
2021/10/19 08:06:42;;;;;;;7.95;7.18;;;8.90;85.80;;;;;;5218764;28;20496;-68
2021/10/19 08:09:14;;;;;;;9.10;8.00;;;9.00;85.80;;;;;;5216339;28;20033;-66
2021/10/19 08:11:47;;;;;;;8.90;7.97;;;9.00;85.50;;;;;;5221153;28;20829;-67
2021/10/19 08:14:19;;;;;;;7.63;6.93;;;9.10;85.40;;;;;;5220334;28;20090;-67
2021/10/19 08:16:51;;;;;;;10.45;7.47;;;9.10;85.00;;;;;;5218862;28;20543;-67
2021/10/19 08:19:23;;;;;;;9.38;7.75;;;9.20;84.80;;;;;;5206362;28;20060;-67
2021/10/19 08:21:54;;;;;;;8.20;7.35;;;9.30;85.00;;;;;;5220318;28;20183;-67
2021/10/19 08:24:26;;;;;;;8.77;7.88;;;9.30;84.50;;;;;;5218071;28;20038;-67
2021/10/19 08:26:58;;;;;;;8.15;7.32;;;9.40;84.10;;;;;;5217982;28;20049;-67
2021/10/19 08:29:30;;;;;;;9.80;8.43;;;9.50;84.00;;;;;;5222446;28;20047;-67
2021/10/19 08:32:02;;;;;;;8.60;7.68;;;9.60;84.30;;;;;;5219024;28;20660;-69
2021/10/19 08:34:34;;;;;;;8.48;7.68;;;9.70;82.90;;;;;;5219956;28;20047;-66
2021/10/19 08:37:06;;;;;;;8.85;8.05;;;9.80;84.50;;;;;;5218404;28;20090;-67
2021/10/19 08:39:38;;;;;;;8.63;7.75;;;9.90;84.10;;;;;;5219670;28;20126;-67
2021/10/19 08:42:13;;;;;;;9.60;8.70;;;10.00;84.60;;;;;;5220691;28;20040;-66
2021/10/19 08:44:45;;;;;;;10.88;8.48;;;10.10;84.80;;;;;;5215952;28;20051;-66
2021/10/19 08:47:17;;;;;;;8.82;7.95;;;10.20;86.30;;;;;;5220625;28;20068;-67
2021/10/19 08:49:50;;;;;;;9.20;7.97;;;10.30;84.20;;;;;;5225773;28;20123;-66
2021/10/19 08:52:22;;;;;;;8.70;7.90;;;10.40;84.20;;;;;;5218854;28;20140;-67
2021/10/19 08:54:53;;;;;;;9.48;8.27;;;10.40;84.10;;;;;;5223912;28;20052;-67
2021/10/19 08:57:25;;;;;;;9.63;8.73;;;10.50;84.30;;;;;;5220624;28;20758;-66
2021/10/19 08:59:57;;;;;;;9.65;8.73;;;10.50;85.20;;;;;;5226446;28;20071;-66
2021/10/19 09:02:44;;;;;;;9.68;8.77;;;10.60;85.40;;;;;;5217591;28;20052;-67
2021/10/19 09:05:16;;;;;;;10.20;9.20;;;10.70;86.10;;;;;;5202870;28;20053;-69
2021/10/19 09:08:01;;;;;;;21.10;9.50;;;10.80;84.40;;;;;;5221640;28;20091;-66
2021/10/19 09:10:37;;;;;;;12.40;9.38;;;10.90;85.40;;;;;;5225910;28;20504;-69
2021/10/19 09:13:14;;;;;;;11.65;8.95;;;11.00;85.00;;;;;;5204824;28;20121;-67
2021/10/19 09:15:50;;;;;;;13.63;8.93;;;11.00;84.90;;;;;;5223441;28;20610;-67
2021/10/19 09:18:22;;;;;;;9.90;9.00;;;11.10;85.00;;;;;;5223727;28;20057;-68
2021/10/19 09:20:55;;;;;;;10.20;9.20;;;11.10;83.30;;;;;;5205239;28;20085;-67
2021/10/19 09:23:28;;;;;;;11.05;10.05;;;11.20;84.50;;;;;;5222685;28;20040;-67
2021/10/19 09:26:03;;;;;;;10.18;9.18;;;11.20;84.70;;;;;;5220963;28;20141;-68
2021/10/19 09:28:39;;;;;;;10.65;9.55;;;11.20;84.90;;;;;;5222984;28;20033;-67
2021/10/19 09:31:11;;;;;;;10.25;9.25;;;11.30;84.50;;;;;;5207438;28;20032;-67
2021/10/19 09:33:43;;;;;;;11.57;10.38;;;11.30;82.80;;;;;;5223460;28;20048;-67
2021/10/19 09:36:14;;;;;;;12.13;9.50;;;11.30;84.20;;;;;;5222216;28;20045;-67
2021/10/19 09:38:49;;;;;;;11.57;9.60;;;11.30;83.50;;;;;;5222149;28;20079;-66
2021/10/19 09:41:21;;;;;;;12.00;10.52;;;11.40;83.90;;;;;;5223406;28;20514;-66
2021/10/19 09:43:53;;;;;;;10.38;9.38;;;11.40;81.70;;;;;;5222385;28;20142;-66
2021/10/19 09:46:26;;;;;;;14.10;10.30;;;11.50;82.50;;;;;;5220893;28;20179;-66
2021/10/19 09:48:58;;;;;;;11.80;9.27;;;11.50;82.00;;;;;;5221823;28;20041;-66
2021/10/19 09:51:37;;;;;;;10.43;9.43;;;11.60;81.80;;;;;;5222338;28;20150;-66
2021/10/19 09:54:11;;;;;;;11.32;9.43;;;11.60;82.90;;;;;;5194845;28;20036;-67
2021/10/19 09:56:43;;;;;;;11.60;9.20;;;11.60;80.70;;;;;;5221461;28;20884;-67
2021/10/19 09:59:17;;;;;;;10.32;9.32;;;11.70;81.50;;;;;;5224733;28;20498;-67
2021/10/19 10:01:49;;;;;;;10.05;9.13;;;11.80;83.10;;;;;;5222405;28;20136;-68
2021/10/19 10:04:21;;;;;;;12.77;11.32;;;11.80;82.30;;;;;;5221435;28;20044;-66
2021/10/19 10:06:54;;;;;;;12.18;10.98;;;11.90;78.30;;;;;;5220563;28;20052;-67
2021/10/19 10:09:27;;;;;;;12.40;11.10;;;11.90;79.20;;;;;;5192100;28;20049;-67
2021/10/19 10:12:00;;;;;;;12.65;11.45;;;12.00;77.10;;;;;;5218736;28;20078;-66
2021/10/19 10:14:47;;;;;;;12.50;11.20;;;12.10;81.50;;;;;;5203120;28;20913;-66
2021/10/19 10:17:19;;;;;;;12.32;10.65;;;12.10;78.00;;;;;;5219869;28;20580;-66
2021/10/19 10:19:52;;;;;;;12.80;11.60;;;12.20;78.30;;;;;;5220329;28;20129;-67
2021/10/19 11:13:50;;;;;;;11.55;10.55;;;13.10;75.40;;;;;;5151275;23;20076;-71
2021/10/19 11:16:45;;;;;;;12.18;11.02;;;13.10;75.80;;;;;;5043751;29;20569;-74
2021/10/19 11:19:21;;;;;;;11.90;10.80;;;13.10;73.90;;;;;;5043110;29;20071;-72
2021/10/19 11:21:59;;;;;;;12.07;10.73;;;13.20;73.30;;;;;;5024691;29;20061;-72
2021/10/19 11:24:35;;;;;;;11.88;10.82;;;13.20;75.00;;;;;;5027807;29;20489;-72
2021/10/19 11:27:08;;;;;;;12.40;11.30;;;13.30;74.50;;;;;;5014171;29;20113;-72
2021/10/19 11:29:41;;;;;;;13.15;10.38;;;13.30;72.60;;;;;;5026740;29;20745;-73
2021/10/19 11:32:14;;;;;;;12.63;11.25;;;13.40;72.30;;;;;;5027651;29;20097;-74
2021/10/19 11:34:46;;;;;;;12.30;11.20;;;13.40;73.60;;;;;;5027553;29;20041;-72
2021/10/19 11:37:18;;;;;;;11.90;10.90;;;13.50;73.00;;;;;;5028064;29;20048;-73
2021/10/19 11:40:08;;;;;;;13.52;11.27;;;13.50;72.90;;;;;;5029378;29;20049;-73
2021/10/19 11:42:51;;;;;;;12.57;11.48;;;13.50;74.50;;;;;;5024531;29;20053;-73
2021/10/19 11:45:26;;;;;;;16.10;12.02;;;13.50;74.30;;;;;;5028336;29;20105;-74
2021/10/19 11:48:05;;;;;;;12.88;11.68;;;13.60;74.80;;;;;;5028400;29;20045;-74
2021/10/19 11:50:37;;;;;;;12.95;11.65;;;13.60;72.20;;;;;;5030431;29;20457;-74
2021/10/19 11:53:13;;;;;;;13.18;11.93;;;13.70;75.90;;;;;;5018922;29;20388;-75
2021/10/19 11:55:45;;;;;;;13.00;11.70;;;13.70;73.40;;;;;;5001126;29;20136;-73
2021/10/19 11:58:22;;;;;;;12.60;11.45;;;13.70;74.30;;;;;;5032543;29;20148;-74
2021/10/19 12:00:54;;;;;;;11.98;10.98;;;13.70;76.50;;;;;;5029217;29;20079;-74
2021/10/19 12:03:31;;;;;;;12.93;11.27;;;13.80;76.10;;;;;;5014351;29;20045;-73
2021/10/19 12:06:10;;;;;;;12.02;11.02;;;13.80;76.60;;;;;;5014107;29;20143;-74
2021/10/19 12:08:43;;;;;;;12.77;11.75;;;13.80;75.90;;;;;;5030660;29;20960;-72
2021/10/19 12:11:15;;;;;;;13.32;11.93;;;13.80;76.20;;;;;;5016316;29;20152;-73
2021/10/19 12:13:56;;;;;;;11.82;10.82;;;13.80;76.90;;;;;;5016317;29;20069;-74
2021/10/19 12:16:30;;;;;;;13.75;12.30;;;13.90;77.30;;;;;;5016204;29;20132;-74
2021/10/19 12:19:03;;;;;;;13.35;12.15;;;13.90;78.40;;;;;;5029382;29;20060;-74
2021/10/19 12:21:34;;;;;;;12.88;11.80;;;13.90;78.10;;;;;;5030938;29;20056;-74
2021/10/19 12:24:06;;;;;;;12.63;11.52;;;14.00;79.40;;;;;;5024311;29;20136;-79
2021/10/19 12:26:38;;;;;;;12.77;11.60;;;14.00;78.80;;;;;;5033284;29;20757;-79
2021/10/19 12:29:12;;;;;;;13.57;12.27;;;13.90;79.40;;;;;;5037393;29;20556;-79
2021/10/19 12:31:48;;;;;;;13.52;12.23;;;14.00;78.00;;;;;;5034941;29;20082;-80
2021/10/19 12:34:25;;;;;;;13.82;12.57;;;14.00;79.30;;;;;;5034512;29;20048;-77
2021/10/19 12:37:04;;;;;;;13.48;12.25;;;14.00;78.20;;;;;;5033384;29;20583;-79
2021/10/19 12:39:45;;;;;;;13.07;11.98;;;14.00;79.00;;;;;;5017378;29;20040;-77
2021/10/19 12:42:17;;;;;;;13.70;12.40;;;14.00;79.40;;;;;;4997403;29;20160;-79
2021/10/19 12:44:49;;;;;;;13.63;12.43;;;14.00;80.40;;;;;;5033479;29;20076;-77
2021/10/19 12:47:21;;;;;;;17.98;16.23;;;14.10;79.80;;;;;;5036517;29;20145;-74
2021/10/19 12:49:53;;;;;;;14.70;13.50;;;14.10;78.90;;;;;;5035178;29;20057;-73
2021/10/19 12:52:25;;;;;;;12.63;11.63;;;14.00;79.10;;;;;;5035529;29;20053;-76
2021/10/19 12:54:57;;;;;;;13.60;12.40;;;14.00;79.40;;;;;;5036856;29;20140;-75
2021/10/19 12:57:29;;;;;;;13.57;12.27;;;14.00;81.50;;;;;;5019681;29;20049;-75
2021/10/19 13:00:01;;;;;;;13.75;12.38;;;14.00;80.80;;;;;;5036054;29;20226;-76
2021/10/19 13:02:33;;;;;;;13.75;12.55;;;14.00;81.20;;;;;;5053002;23;20147;-77
2021/10/19 13:05:05;;;;;;;13.52;12.20;;;14.00;80.50;;;;;;5061088;29;20095;-76
2021/10/19 13:07:37;;;;;;;13.27;12.18;;;14.00;80.50;;;;;;5077436;29;20127;-76
2021/10/19 13:10:09;;;;;;;13.32;12.05;;;14.00;81.30;;;;;;5076499;29;20485;-76
2021/10/19 13:12:41;;;;;;;11.77;10.68;;;14.00;81.90;;;;;;5059552;29;20517;-77
2021/10/19 13:15:13;;;;;;;12.85;11.65;;;14.00;82.60;;;;;;5077610;29;20610;-76
2021/10/19 13:17:45;;;;;;;12.75;11.63;;;14.00;81.90;;;;;;5060500;29;20823;-78
2021/10/19 13:20:17;;;;;;;13.23;12.00;;;14.00;81.40;;;;;;5074205;29;20384;-78
2021/10/19 13:22:49;;;;;;;12.25;11.25;;;14.00;82.10;;;;;;5076013;29;20139;-79
2021/10/19 13:25:20;;;;;;;12.85;11.75;;;14.00;83.00;;;;;;5076391;29;20155;-80
2021/10/19 13:27:53;;;;;;;11.82;10.75;;;14.00;81.70;;;;;;5078251;29;20166;-76
2021/10/19 13:30:25;;;;;;;11.48;10.52;;;14.00;83.90;;;;;;5076923;29;20044;-76
2021/10/19 13:32:59;;;;;;;12.60;11.50;;;14.00;83.40;;;;;;5076115;29;20045;-76
2021/10/19 13:35:32;;;;;;;12.40;11.40;;;14.00;84.10;;;;;;5076234;29;20420;-76
2021/10/19 13:38:05;;;;;;;12.55;11.45;;;14.00;83.40;;;;;;5054932;29;20099;-77
2021/10/19 13:40:39;;;;;;;12.35;11.13;;;14.00;83.10;;;;;;5060353;29;20561;-77
2021/10/19 13:43:11;;;;;;;11.25;10.35;;;14.00;83.00;;;;;;5070929;29;20111;-76
2021/10/19 13:45:44;;;;;;;11.35;10.35;;;14.00;83.10;;;;;;5061058;29;20111;-77
2021/10/19 13:48:17;;;;;;;11.57;10.57;;;13.90;83.40;;;;;;5090249;28;20305;-78
2021/10/19 13:50:49;;;;;;;12.05;11.05;;;13.90;84.90;;;;;;5098119;29;20514;-77
2021/10/19 13:53:21;;;;;;;12.27;11.18;;;13.90;84.90;;;;;;5113783;28;20046;-77
2021/10/19 13:55:54;;;;;;;11.77;10.73;;;13.90;85.20;;;;;;5117144;28;20067;-78
2021/10/19 13:58:26;;;;;;;11.82;10.93;;;13.90;85.80;;;;;;5115444;28;20522;-76
2021/10/19 14:00:58;;;;;;;12.55;11.55;;;13.90;85.10;;;;;;5115623;28;20425;-77
2021/10/19 14:03:30;;;;;;;12.13;11.13;;;13.90;85.10;;;;;;5114353;28;20489;-77
2021/10/19 14:06:03;;;;;;;12.35;11.35;;;13.90;84.70;;;;;;5091791;28;20057;-76
2021/10/19 14:08:35;;;;;;;13.80;12.43;;;13.90;84.80;;;;;;5097954;28;20130;-76